createdAt,value
2022-11-12T00:05:00.460Z,18.54
2022-11-12T00:10:23.300Z,18.53
2022-11-12T00:15:46.729Z,18.51
2022-11-12T00:21:08.585Z,18.58
2022-11-12T00:26:30.555Z,18.58
2022-11-12T00:31:52.226Z,18.56
2022-11-12T00:37:14.696Z,18.55
2022-11-12T00:42:37.040Z,18.55
2022-11-12T00:47:58.533Z,18.52
2022-11-12T00:53:20.202Z,18.49
2022-11-12T00:58:42.655Z,18.48
2022-11-12T01:04:04.379Z,18.48
2022-11-12T01:09:26.145Z,18.54
2022-11-12T01:14:48.379Z,18.55
2022-11-12T01:20:10.676Z,18.49
2022-11-12T01:25:32.712Z,18.45
2022-11-12T01:30:54.528Z,18.44
2022-11-12T01:36:18.462Z,18.45
2022-11-12T01:41:42.048Z,18.46
2022-11-12T01:47:29.220Z,18.49
2022-11-12T01:52:56.893Z,18.49
2022-11-12T01:58:22.450Z,18.49
2022-11-12T02:03:44.873Z,18.47
2022-11-12T02:09:07.568Z,18.42
2022-11-12T02:14:30.186Z,18.41
2022-11-12T02:19:53.344Z,18.43
2022-11-12T02:25:21.277Z,18.47
2022-11-12T02:30:46.251Z,18.47
2022-11-12T02:36:09.144Z,18.47
2022-11-12T02:41:30.812Z,18.49
2022-11-12T02:46:52.601Z,18.48
2022-11-12T02:52:14.952Z,18.41
2022-11-12T02:57:39.607Z,18.38
2022-11-12T03:03:04.025Z,18.32
2022-11-12T03:08:28.765Z,18.33
2022-11-12T03:13:51.126Z,18.32
2022-11-12T03:19:13.450Z,18.30
2022-11-12T03:24:35.702Z,18.28
2022-11-12T03:29:57.521Z,18.28
2022-11-12T03:35:19.617Z,18.28
2022-11-12T03:40:41.393Z,18.25
2022-11-12T03:46:02.971Z,18.19
2022-11-12T03:51:25.121Z,18.17
2022-11-12T03:56:47.449Z,18.16
2022-11-12T04:02:09.277Z,18.18
2022-11-12T04:07:32.147Z,18.20
2022-11-12T04:12:54.853Z,18.20
2022-11-12T04:18:16.579Z,18.17
2022-11-12T04:23:40.755Z,18.23
2022-11-12T04:29:02.751Z,18.25
2022-11-12T04:34:24.209Z,18.28
2022-11-12T04:39:45.989Z,18.28
2022-11-12T04:45:11.377Z,18.34
2022-11-12T04:50:32.913Z,18.34
2022-11-12T04:56:00.709Z,18.40
2022-11-12T05:01:22.499Z,18.43
2022-11-12T05:06:44.419Z,18.46
2022-11-12T05:12:07.036Z,18.51
2022-11-12T05:17:29.270Z,18.55
2022-11-12T05:23:05.565Z,18.64
2022-11-12T05:28:28.630Z,18.71
2022-11-12T05:33:50.881Z,18.81
2022-11-12T05:39:12.610Z,18.89
2022-11-12T05:44:35.211Z,18.94
2022-11-12T05:49:59.550Z,19.27
2022-11-12T05:55:21.960Z,19.73
2022-11-12T06:00:43.822Z,20.38
2022-11-12T06:06:05.715Z,20.61
2022-11-12T06:11:27.718Z,20.65
2022-11-12T06:16:50.386Z,20.28
2022-11-12T06:22:12.414Z,19.86
2022-11-12T06:27:34.073Z,19.72
2022-11-12T06:32:55.645Z,19.71
2022-11-12T06:38:17.349Z,19.76
2022-11-12T06:43:40.373Z,20.16
2022-11-12T06:49:01.808Z,20.77
2022-11-12T06:54:23.753Z,20.74
2022-11-12T06:59:45.119Z,20.88
2022-11-12T07:05:08.027Z,20.91
2022-11-12T07:10:29.570Z,20.76
2022-11-12T07:15:51.750Z,20.67
2022-11-12T07:21:17.321Z,20.67
2022-11-12T07:26:43.231Z,20.71
2022-11-12T07:32:09.158Z,20.81
2022-11-12T07:37:31.209Z,20.90
2022-11-12T07:42:53.121Z,21.03
2022-11-12T07:48:14.752Z,21.16
2022-11-12T07:55:58.845Z,21.37
2022-11-12T08:01:29.367Z,21.56
2022-11-12T08:06:51.696Z,21.67
2022-11-12T08:12:13.992Z,21.76
2022-11-12T08:17:39.406Z,21.93
2022-11-12T08:23:01.432Z,22.05
2022-11-12T08:28:23.590Z,22.17
2022-11-12T08:33:45.818Z,22.30
2022-11-12T08:39:08.846Z,22.39
2022-11-12T08:44:31.613Z,22.47
2022-11-12T08:49:53.774Z,22.62
2022-11-12T08:55:15.426Z,22.59
2022-11-12T09:00:40.938Z,22.54
2022-11-12T09:06:04.552Z,22.58
2022-11-12T09:11:26.669Z,22.66
2022-11-12T09:16:49.150Z,22.79
2022-11-12T09:22:10.428Z,22.84
2022-11-12T09:27:32.028Z,22.87
2022-11-12T09:33:00.119Z,22.95
2022-11-12T09:38:22.334Z,22.97
2022-11-12T09:43:53.704Z,23.03
2022-11-12T09:49:24.199Z,23.11
2022-11-12T09:54:50.797Z,23.10
2022-11-12T10:00:20.286Z,23.11
2022-11-12T10:05:54.735Z,23.11
2022-11-12T10:11:48.567Z,23.18
2022-11-12T10:17:50.832Z,23.20
2022-11-12T10:23:43.837Z,23.24
2022-11-12T10:29:11.184Z,23.30
2022-11-12T10:34:33.244Z,23.28
2022-11-12T10:39:56.294Z,23.27
2022-11-12T10:45:22.292Z,23.32
2022-11-12T10:50:43.852Z,23.35
2022-11-12T10:56:24.969Z,23.35
2022-11-12T11:01:55.457Z,23.42
2022-11-12T11:07:25.768Z,23.49
2022-11-12T11:12:47.988Z,23.45
2022-11-12T11:18:14.464Z,23.46
2022-11-12T11:23:46.686Z,23.51
2022-11-12T11:29:30.990Z,23.54
2022-11-12T11:35:09.861Z,23.59
2022-11-12T11:41:05.392Z,23.54
2022-11-12T11:46:40.094Z,23.46
2022-11-12T11:52:40.264Z,23.47
2022-11-12T11:58:17.087Z,23.51
2022-11-12T12:04:05.485Z,23.55
2022-11-12T12:09:44.688Z,23.58
2022-11-12T12:15:09.818Z,23.57
2022-11-12T12:20:43.117Z,23.54
2022-11-12T12:26:14.294Z,23.50
2022-11-12T12:31:43.761Z,23.46
2022-11-12T12:37:41.817Z,23.42
2022-11-12T12:43:13.429Z,23.39
2022-11-12T12:48:40.834Z,23.36
2022-11-12T12:54:03.070Z,23.33
2022-11-12T12:59:24.995Z,23.32
2022-11-12T13:04:56.608Z,23.31
2022-11-12T13:10:37.205Z,23.28
2022-11-12T13:16:00.983Z,23.22
2022-11-12T13:21:22.939Z,23.17
2022-11-12T13:26:59.489Z,22.98
2022-11-12T13:32:43.913Z,22.74
2022-11-12T13:38:08.380Z,22.56
2022-11-12T13:43:42.458Z,22.39
2022-11-12T13:49:13.114Z,22.21
2022-11-12T13:54:39.125Z,22.05
2022-11-12T14:00:28.955Z,21.92
2022-11-12T14:05:51.549Z,21.75
2022-11-12T14:11:38.414Z,21.61
2022-11-12T14:17:27.996Z,21.54
2022-11-12T14:22:50.566Z,21.42
2022-11-12T14:28:27.897Z,21.35
2022-11-12T14:33:50.220Z,21.25
2022-11-12T14:39:14.350Z,21.17
2022-11-12T14:44:38.208Z,21.09
2022-11-12T14:50:00.176Z,21.01
2022-11-12T14:55:29.617Z,20.94
2022-11-12T15:00:53.830Z,20.89
2022-11-12T15:06:22.127Z,20.83
2022-11-12T15:11:47.232Z,20.77
2022-11-12T15:17:26.903Z,20.74
2022-11-12T15:22:53.068Z,20.71
2022-11-12T15:28:23.409Z,20.67
2022-11-12T15:33:45.290Z,20.64
2022-11-12T15:39:14.487Z,20.61
2022-11-12T15:44:37.489Z,20.57
2022-11-12T15:49:59.967Z,20.51
2022-11-12T15:55:21.846Z,20.45
2022-11-12T16:00:44.177Z,20.36
2022-11-12T16:06:09.184Z,20.31
2022-11-12T16:11:31.625Z,20.27
2022-11-12T16:16:54.085Z,20.17
2022-11-12T16:22:16.164Z,20.13
2022-11-12T16:27:39.132Z,20.09
2022-11-12T16:33:01.455Z,20.08
2022-11-12T16:38:23.346Z,20.01
2022-11-12T16:43:45.483Z,19.97
2022-11-12T16:49:12.494Z,19.94
2022-11-12T16:54:36.463Z,19.88
2022-11-12T16:59:58.330Z,19.87
2022-11-12T17:05:22.765Z,19.83
2022-11-12T17:10:44.770Z,19.81
2022-11-12T17:16:07.725Z,19.79
2022-11-12T17:21:30.711Z,19.78
2022-11-12T17:26:53.306Z,19.78
2022-11-12T17:32:15.411Z,19.75
2022-11-12T17:37:37.479Z,19.72
2022-11-12T17:42:59.591Z,19.69
2022-11-12T17:48:21.835Z,19.63
2022-11-12T17:53:43.924Z,19.61
2022-11-12T17:59:05.643Z,19.58
2022-11-12T18:04:30.739Z,19.58
2022-11-12T18:09:53.981Z,19.65
2022-11-12T18:15:16.830Z,19.79
2022-11-12T18:20:42.790Z,19.85
2022-11-12T18:26:04.529Z,19.86
2022-11-12T18:31:29.696Z,19.92
2022-11-12T18:36:51.744Z,19.95
2022-11-12T18:42:13.318Z,19.98
2022-11-12T18:47:34.617Z,20.03
2022-11-12T18:52:57.018Z,20.07
2022-11-12T18:58:19.144Z,20.05
2022-11-12T19:03:40.570Z,20.07
2022-11-12T19:09:03.693Z,20.15
2022-11-12T19:14:25.882Z,20.18
2022-11-12T19:19:48.053Z,20.16
2022-11-12T19:25:10.130Z,20.16
2022-11-12T19:30:32.703Z,20.17
2022-11-12T19:35:54.494Z,20.14
2022-11-12T19:41:20.115Z,20.14
2022-11-12T19:46:42.413Z,20.17
2022-11-12T19:52:07.165Z,20.07
2022-11-12T19:57:29.480Z,20.02
2022-11-12T20:02:51.819Z,19.97
2022-11-12T20:08:13.899Z,19.91
2022-11-12T20:13:35.965Z,19.88
2022-11-12T20:18:58.286Z,19.80
2022-11-12T20:24:21.257Z,19.72
2022-11-12T20:29:43.862Z,19.63
2022-11-12T20:35:15.250Z,19.59
2022-11-12T20:40:41.143Z,19.60
2022-11-12T20:46:03.217Z,19.58
2022-11-12T20:51:26.917Z,19.58
2022-11-12T20:56:49.152Z,19.61
2022-11-12T21:02:11.962Z,19.62
2022-11-12T21:07:33.936Z,19.63
2022-11-12T21:12:55.978Z,19.64
2022-11-12T21:18:18.894Z,19.61
2022-11-12T21:23:42.670Z,19.62
2022-11-12T21:29:04.836Z,19.62
2022-11-12T21:34:26.641Z,19.66
2022-11-12T21:39:49.059Z,19.67
2022-11-12T21:45:11.997Z,19.63
2022-11-12T21:50:37.868Z,19.66
2022-11-12T21:56:21.349Z,19.63
2022-11-12T22:01:42.769Z,19.63
2022-11-12T22:07:05.460Z,19.66
2022-11-12T22:12:27.078Z,19.63
2022-11-12T22:17:48.656Z,19.69
2022-11-12T22:23:10.126Z,19.67
2022-11-12T22:28:32.450Z,19.66
2022-11-12T22:33:55.346Z,19.65
2022-11-12T22:39:17.278Z,19.65
2022-11-12T22:44:39.309Z,19.61
2022-11-12T22:50:01.327Z,19.58
2022-11-12T22:55:23.452Z,19.52
2022-11-12T23:00:46.840Z,19.48
2022-11-12T23:06:08.890Z,19.49
2022-11-12T23:11:36.210Z,19.50
2022-11-12T23:17:02.254Z,19.49
2022-11-12T23:22:24.608Z,19.50
2022-11-12T23:27:46.377Z,19.48
2022-11-12T23:33:08.926Z,19.47
2022-11-12T23:38:32.201Z,19.44
2022-11-12T23:43:55.976Z,19.43
2022-11-12T23:49:17.578Z,19.40
2022-11-12T23:54:39.525Z,19.41
